Time;durP1;ratioP1;P1;durP2;ratioP2;P2;SDS_P1;SDS_P2;PMS_P1;PMS_P2;Temp;Humidity;BMP_temperature;BMP_pressure;BME280_temperature;BME280_humidity;BME280_pressure;Samples;Min_cycle;Max_cycle;Signal;HPM_P1;HPM_P2
2022/11/26 00:02:23;;;;;;;17.88;8.45;;;7.30;82.80;;;;;;5122952;27;20247;-70
2022/11/26 00:04:54;;;;;;;19.60;9.75;;;7.20;82.80;;;;;;5120930;27;20194;-70
2022/11/26 00:07:25;;;;;;;15.20;9.57;;;7.20;83.00;;;;;;5124976;27;20202;-70
2022/11/26 00:09:55;;;;;;;19.80;10.48;;;7.10;83.10;;;;;;5120313;27;20202;-70
2022/11/26 00:12:25;;;;;;;19.23;9.20;;;7.10;83.30;;;;;;5121770;27;20592;-70
2022/11/26 00:14:53;;;;;;;19.42;9.85;;;7.10;83.10;;;;;;5122140;27;20857;-69
2022/11/26 00:17:22;;;;;;;32.90;15.50;;;7.10;83.10;;;;;;5126521;27;20199;-71
2022/11/26 00:19:50;;;;;;;24.20;11.30;;;7.10;83.10;;;;;;5131514;27;20682;-69
2022/11/26 00:22:24;;;;;;;16.83;9.50;;;7.10;83.10;;;;;;5127677;27;20871;-68
2022/11/26 00:24:53;;;;;;;19.70;9.82;;;7.10;83.30;;;;;;5128222;27;20204;-69
2022/11/26 00:27:23;;;;;;;19.20;9.68;;;7.10;83.30;;;;;;5127221;27;20202;-69
2022/11/26 00:29:52;;;;;;;31.55;15.60;;;7.10;83.20;;;;;;5124467;27;20205;-69
2022/11/26 00:32:23;;;;;;;26.05;12.18;;;7.10;83.20;;;;;;5128566;27;20206;-71
2022/11/26 00:34:51;;;;;;;16.58;9.25;;;7.10;83.10;;;;;;5132223;27;20326;-69
2022/11/26 00:37:24;;;;;;;13.75;9.05;;;7.00;83.00;;;;;;5130513;27;20198;-71
2022/11/26 00:39:52;;;;;;;21.13;9.60;;;7.00;83.10;;;;;;5128162;27;20579;-70
2022/11/26 00:42:20;;;;;;;20.83;10.57;;;7.00;83.10;;;;;;5131145;27;20198;-71
2022/11/26 00:44:49;;;;;;;22.23;12.05;;;7.00;83.20;;;;;;5129552;27;20210;-70
2022/11/26 00:47:17;;;;;;;15.82;9.48;;;7.00;83.20;;;;;;5129888;27;20194;-69
2022/11/26 00:49:45;;;;;;;14.63;7.47;;;7.00;83.40;;;;;;5130094;27;20202;-68
2022/11/26 00:52:30;;;;;;;12.38;7.93;;;7.10;83.30;;;;;;5129809;27;20214;-69
2022/11/26 00:54:58;;;;;;;16.38;8.18;;;7.10;83.30;;;;;;5126294;27;20213;-69
2022/11/26 00:57:26;;;;;;;13.40;7.90;;;7.10;83.30;;;;;;5125053;27;20198;-69
2022/11/26 00:59:54;;;;;;;19.52;8.05;;;7.10;83.40;;;;;;5124021;27;20221;-69
2022/11/26 01:02:22;;;;;;;14.23;7.88;;;7.10;83.40;;;;;;5123522;28;20271;-69
2022/11/26 01:04:50;;;;;;;15.02;7.25;;;7.10;83.40;;;;;;5124538;28;20612;-71
2022/11/26 01:07:18;;;;;;;15.13;7.47;;;7.20;83.40;;;;;;5120820;27;20206;-71
2022/11/26 01:09:49;;;;;;;9.60;6.25;;;7.20;83.40;;;;;;5121726;28;20213;-70
2022/11/26 01:12:17;;;;;;;9.57;5.68;;;7.20;83.40;;;;;;5122129;28;20217;-69
2022/11/26 01:14:45;;;;;;;10.60;5.28;;;7.20;83.30;;;;;;5122294;27;20706;-71
2022/11/26 01:17:13;;;;;;;10.35;4.55;;;7.20;83.30;;;;;;5122726;28;20209;-69
2022/11/26 01:19:41;;;;;;;9.25;5.30;;;7.20;83.30;;;;;;5122551;28;20258;-69
2022/11/26 01:22:19;;;;;;;14.07;5.82;;;7.20;83.20;;;;;;5120028;27;20218;-71
2022/11/26 01:24:49;;;;;;;44.33;16.10;;;7.20;83.20;;;;;;5120863;28;20681;-71
2022/11/26 01:27:19;;;;;;;37.63;12.63;;;7.20;83.10;;;;;;5120594;28;20263;-69
2022/11/26 01:29:47;;;;;;;26.00;10.07;;;7.20;83.10;;;;;;5120355;27;20206;-70
2022/11/26 01:32:15;;;;;;;14.50;6.40;;;7.20;83.30;;;;;;5122054;27;20281;-69
2022/11/26 01:34:43;;;;;;;15.60;6.47;;;7.20;83.30;;;;;;5111945;28;20311;-69
2022/11/26 01:37:13;;;;;;;15.23;6.22;;;7.20;83.30;;;;;;5121942;28;20238;-69
2022/11/26 01:39:41;;;;;;;25.13;11.05;;;7.20;83.30;;;;;;5121613;28;20206;-71
2022/11/26 01:42:24;;;;;;;18.05;6.03;;;7.20;83.30;;;;;;5123248;27;20221;-71
2022/11/26 01:44:52;;;;;;;18.75;4.95;;;7.20;83.40;;;;;;5120667;28;20206;-71
2022/11/26 01:47:23;;;;;;;24.67;5.70;;;7.30;83.40;;;;;;5121372;27;20263;-71
2022/11/26 01:50:28;;;;;;;16.17;5.38;;;7.30;83.60;;;;;;5125823;27;20198;-70
2022/11/26 01:52:59;;;;;;;15.25;5.55;;;7.30;83.70;;;;;;5123380;27;20221;-71
2022/11/26 01:55:36;;;;;;;14.55;5.45;;;7.40;83.90;;;;;;5128495;27;20225;-69
2022/11/26 01:58:08;;;;;;;10.20;4.78;;;7.40;84.00;;;;;;5128180;27;20904;-69
2022/11/26 02:00:36;;;;;;;14.35;4.25;;;7.40;84.00;;;;;;5124301;27;20229;-69
2022/11/26 02:03:05;;;;;;;14.15;4.65;;;7.50;84.00;;;;;;5123123;27;20198;-71
2022/11/26 02:05:39;;;;;;;18.13;4.80;;;7.50;83.90;;;;;;5128800;27;20225;-71
2022/11/26 02:08:09;;;;;;;18.80;5.20;;;7.50;84.00;;;;;;5116598;27;20213;-68
2022/11/26 02:10:37;;;;;;;16.02;5.90;;;7.50;84.00;;;;;;5125603;27;20226;-71
2022/11/26 02:13:07;;;;;;;12.35;5.45;;;7.50;83.80;;;;;;5128327;27;20217;-70
2022/11/26 02:15:43;;;;;;;11.07;4.68;;;7.50;83.90;;;;;;5125158;27;20498;-70
2022/11/26 02:18:12;;;;;;;14.52;4.63;;;7.50;84.00;;;;;;5126238;27;20201;-70
2022/11/26 02:20:53;;;;;;;14.13;5.40;;;7.50;83.90;;;;;;5125735;27;20226;-70
2022/11/26 02:23:42;;;;;;;17.05;4.80;;;7.50;84.00;;;;;;5123363;27;20205;-70
2022/11/26 02:27:04;;;;;;;9.90;4.40;;;7.50;84.00;;;;;;5126458;27;20975;-70
2022/11/26 02:30:05;;;;;;;14.15;4.75;;;7.50;84.00;;;;;;5098566;27;20222;-70
2022/11/26 02:32:42;;;;;;;11.52;4.28;;;7.50;83.90;;;;;;5125354;27;20855;-70
2022/11/26 02:35:16;;;;;;;7.78;3.50;;;7.50;83.80;;;;;;5126019;27;20223;-70
2022/11/26 02:37:48;;;;;;;11.43;3.45;;;7.40;83.90;;;;;;5125736;27;20724;-70
2022/11/26 02:40:16;;;;;;;12.38;4.53;;;7.40;84.00;;;;;;5122337;27;20250;-70
2022/11/26 02:42:44;;;;;;;11.48;4.32;;;7.50;83.90;;;;;;5124855;27;20210;-70
2022/11/26 02:45:18;;;;;;;20.17;4.45;;;7.40;83.80;;;;;;5123650;27;20258;-69
2022/11/26 02:47:49;;;;;;;6.97;3.65;;;7.40;83.80;;;;;;5125916;27;20205;-69
2022/11/26 02:50:21;;;;;;;8.80;4.35;;;7.40;83.90;;;;;;5126507;27;20214;-69
2022/11/26 02:52:52;;;;;;;9.25;3.90;;;7.40;84.00;;;;;;5124963;27;20202;-69
2022/11/26 02:55:25;;;;;;;14.65;4.15;;;7.40;84.00;;;;;;5127118;27;20213;-69
2022/11/26 02:57:54;;;;;;;12.23;4.75;;;7.40;84.00;;;;;;5124662;27;20213;-70
2022/11/26 03:00:24;;;;;;;12.30;3.90;;;7.40;84.00;;;;;;5123525;27;20222;-70
2022/11/26 03:02:58;;;;;;;12.98;3.92;;;7.40;84.00;;;;;;5125127;27;20210;-69
2022/11/26 03:05:30;;;;;;;11.82;4.18;;;7.40;84.00;;;;;;5115884;27;20210;-70
2022/11/26 03:07:59;;;;;;;15.48;4.32;;;7.40;84.00;;;;;;5123122;27;20217;-70
2022/11/26 03:10:29;;;;;;;11.70;4.88;;;7.50;84.00;;;;;;5122880;27;20229;-70
2022/11/26 03:12:57;;;;;;;13.02;4.70;;;7.40;84.00;;;;;;5125384;27;20690;-70
2022/11/26 03:15:27;;;;;;;15.65;4.88;;;7.40;84.00;;;;;;5124653;27;20237;-70
2022/11/26 03:17:55;;;;;;;12.30;4.53;;;7.40;84.10;;;;;;5125658;27;20274;-69
2022/11/26 03:20:23;;;;;;;20.98;4.90;;;7.50;84.20;;;;;;5123581;27;20226;-69
2022/11/26 03:22:50;;;;;;;16.40;5.30;;;7.50;84.30;;;;;;5123500;27;20596;-70
2022/11/26 03:25:19;;;;;;;11.45;4.70;;;7.50;84.40;;;;;;5125409;27;20210;-69
2022/11/26 03:27:47;;;;;;;10.68;4.30;;;7.60;84.40;;;;;;5121922;27;20231;-69
2022/11/26 03:30:15;;;;;;;16.52;4.65;;;7.60;84.40;;;;;;5124080;27;20221;-70
2022/11/26 03:32:44;;;;;;;16.73;3.95;;;7.60;84.40;;;;;;5125307;27;20561;-70
2022/11/26 03:35:12;;;;;;;13.80;4.85;;;7.60;84.40;;;;;;5123795;27;20295;-69
2022/11/26 03:37:40;;;;;;;12.90;4.30;;;7.70;84.40;;;;;;5124249;27;20194;-70
2022/11/26 03:40:09;;;;;;;14.10;4.70;;;7.70;84.40;;;;;;5123222;27;20199;-70
2022/11/26 03:42:37;;;;;;;14.13;4.60;;;7.70;84.40;;;;;;5123758;27;20193;-70
2022/11/26 03:45:06;;;;;;;11.32;4.85;;;7.70;84.40;;;;;;5122846;27;20243;-70
2022/11/26 03:47:34;;;;;;;10.27;4.80;;;7.70;84.20;;;;;;5124654;27;20584;-70
2022/11/26 03:50:04;;;;;;;17.88;4.65;;;7.70;84.20;;;;;;5121696;27;20202;-69
2022/11/26 03:52:32;;;;;;;15.55;4.38;;;7.70;84.20;;;;;;5123752;27;20258;-70
2022/11/26 03:55:00;;;;;;;15.80;5.30;;;7.70;84.20;;;;;;5126207;27;20243;-70
2022/11/26 03:57:28;;;;;;;10.73;3.45;;;7.70;84.40;;;;;;5124480;27;20247;-70
2022/11/26 03:59:56;;;;;;;12.23;4.70;;;7.70;84.40;;;;;;5121067;27;20692;-70
2022/11/26 04:02:24;;;;;;;14.20;4.13;;;7.70;84.40;;;;;;5124821;27;20275;-70
2022/11/26 04:04:52;;;;;;;17.63;3.92;;;7.70;84.40;;;;;;5122698;27;20194;-70
2022/11/26 04:07:21;;;;;;;12.63;4.72;;;7.70;84.40;;;;;;5122860;27;20214;-69
2022/11/26 04:09:50;;;;;;;14.45;5.80;;;7.70;84.40;;;;;;5124293;27;20266;-69
2022/11/26 04:12:17;;;;;;;15.27;5.07;;;7.70;84.20;;;;;;5123113;27;20778;-70
2022/11/26 04:14:46;;;;;;;13.80;4.55;;;7.80;84.40;;;;;;5125179;27;20616;-70
2022/11/26 04:17:14;;;;;;;15.70;5.43;;;7.80;84.50;;;;;;5125256;27;20215;-70
2022/11/26 04:19:42;;;;;;;12.02;4.50;;;7.80;84.50;;;;;;5120639;27;20703;-70
2022/11/26 04:22:10;;;;;;;20.17;4.97;;;7.80;84.50;;;;;;5121273;27;20225;-70
2022/11/26 04:24:39;;;;;;;13.85;4.13;;;7.80;84.60;;;;;;5123426;27;20194;-70
2022/11/26 04:27:08;;;;;;;14.60;5.53;;;7.80;84.60;;;;;;5124192;27;20714;-70
2022/11/26 04:29:36;;;;;;;14.35;4.30;;;7.90;84.60;;;;;;5124535;27;20682;-70
2022/11/26 04:32:04;;;;;;;14.20;4.70;;;7.90;84.60;;;;;;5122726;27;20275;-69
2022/11/26 04:34:33;;;;;;;18.65;5.22;;;7.90;84.60;;;;;;5124826;27;20230;-70
2022/11/26 04:37:01;;;;;;;19.35;4.57;;;7.90;84.60;;;;;;5120113;27;21113;-70
2022/11/26 04:39:29;;;;;;;12.75;5.05;;;7.90;84.70;;;;;;5123557;27;20210;-69
2022/11/26 04:41:58;;;;;;;16.75;4.70;;;7.90;84.70;;;;;;5119292;27;20268;-69
2022/11/26 04:44:26;;;;;;;13.52;4.30;;;7.90;84.70;;;;;;5124509;27;20209;-69
2022/11/26 04:46:54;;;;;;;13.07;4.90;;;7.90;84.50;;;;;;5118123;27;20264;-69
2022/11/26 04:49:23;;;;;;;12.80;4.50;;;7.90;84.60;;;;;;5125565;27;20205;-69
2022/11/26 04:51:51;;;;;;;20.70;6.00;;;7.90;84.60;;;;;;5117319;27;20286;-69
2022/11/26 04:54:18;;;;;;;19.30;7.50;;;7.90;84.50;;;;;;5122891;27;20286;-69
2022/11/26 04:56:46;;;;;;;23.80;7.55;;;7.90;84.50;;;;;;5121215;27;20206;-71
2022/11/26 04:59:16;;;;;;;22.13;10.48;;;7.90;84.40;;;;;;5125359;27;20978;-71
2022/11/26 05:01:44;;;;;;;27.77;10.15;;;7.90;84.50;;;;;;5122806;27;20229;-71
2022/11/26 05:04:12;;;;;;;23.42;10.07;;;7.90;84.60;;;;;;5124375;27;21083;-70
2022/11/26 05:06:40;;;;;;;20.92;8.85;;;7.80;84.60;;;;;;5123522;27;20621;-70
2022/11/26 05:09:08;;;;;;;22.88;9.07;;;7.80;84.60;;;;;;5123014;27;20609;-70
2022/11/26 05:11:36;;;;;;;16.90;7.90;;;7.80;84.60;;;;;;5123242;27;20250;-70
2022/11/26 05:14:04;;;;;;;21.52;8.15;;;7.80;84.70;;;;;;5120570;28;20217;-70
2022/11/26 05:16:34;;;;;;;16.73;7.18;;;7.80;84.70;;;;;;5124826;28;20724;-70
2022/11/26 05:19:02;;;;;;;21.75;7.57;;;7.80;84.70;;;;;;5122415;27;20245;-70
2022/11/26 05:21:30;;;;;;;16.60;6.53;;;7.80;84.50;;;;;;5122882;27;20264;-70
2022/11/26 05:23:58;;;;;;;15.57;6.78;;;7.70;84.50;;;;;;5122695;27;20202;-70
2022/11/26 05:26:26;;;;;;;14.50;6.40;;;7.70;84.60;;;;;;5126585;27;20201;-70
2022/11/26 05:28:54;;;;;;;18.58;6.43;;;7.70;84.60;;;;;;5126463;27;20210;-70
2022/11/26 05:31:22;;;;;;;12.35;5.30;;;7.70;84.70;;;;;;5127449;27;20902;-70
2022/11/26 05:33:51;;;;;;;16.95;6.40;;;7.70;84.70;;;;;;5143902;27;20737;-70
2022/11/26 05:36:19;;;;;;;11.07;5.30;;;7.70;84.60;;;;;;5126449;27;20609;-70
2022/11/26 05:38:47;;;;;;;15.57;4.75;;;7.70;84.40;;;;;;5125132;27;20266;-70
2022/11/26 05:41:15;;;;;;;12.10;5.03;;;7.60;84.30;;;;;;5125690;27;20226;-70
2022/11/26 05:43:43;;;;;;;10.50;4.65;;;7.50;84.20;;;;;;5126600;27;20688;-70
2022/11/26 05:46:14;;;;;;;15.45;5.90;;;7.50;84.10;;;;;;5127587;27;20202;-70
2022/11/26 05:48:43;;;;;;;12.65;6.25;;;7.40;84.20;;;;;;5125126;27;20210;-70
2022/11/26 05:51:12;;;;;;;13.63;6.05;;;7.30;84.00;;;;;;5123306;27;20226;-70
2022/11/26 05:53:40;;;;;;;13.90;6.28;;;7.20;84.00;;;;;;5127464;27;20228;-70
2022/11/26 05:56:08;;;;;;;10.75;6.22;;;7.20;84.20;;;;;;5124844;27;20225;-70
2022/11/26 05:58:36;;;;;;;16.75;5.95;;;7.20;84.30;;;;;;5127853;27;20255;-70
2022/11/26 06:01:07;;;;;;;12.15;6.00;;;7.20;84.30;;;;;;5123152;27;20251;-70
2022/11/26 06:03:36;;;;;;;12.25;7.03;;;7.10;84.20;;;;;;5124622;27;20206;-70
2022/11/26 06:06:05;;;;;;;16.83;7.63;;;7.00;84.10;;;;;;5124174;27;20909;-70
2022/11/26 06:08:34;;;;;;;22.20;7.70;;;7.00;84.10;;;;;;5126812;27;20506;-70
2022/11/26 06:11:02;;;;;;;11.88;7.85;;;6.90;84.20;;;;;;5125491;27;20222;-70
2022/11/26 06:13:30;;;;;;;16.00;8.73;;;6.90;84.30;;;;;;5124084;27;20207;-70
2022/11/26 06:15:58;;;;;;;12.90;6.35;;;7.00;84.40;;;;;;5126454;27;20279;-70
2022/11/26 06:18:26;;;;;;;12.13;6.10;;;7.00;84.40;;;;;;5124078;27;20239;-70
2022/11/26 06:20:54;;;;;;;12.63;6.28;;;7.00;84.20;;;;;;5124000;27;20682;-70
2022/11/26 06:23:22;;;;;;;15.85;7.07;;;6.90;84.10;;;;;;5124614;27;20198;-70
2022/11/26 06:25:51;;;;;;;12.93;6.75;;;6.90;83.90;;;;;;5123903;27;20835;-70
2022/11/26 06:28:19;;;;;;;11.90;5.97;;;6.80;83.90;;;;;;5124530;27;20707;-70
2022/11/26 06:30:47;;;;;;;12.55;7.00;;;6.80;83.80;;;;;;5122533;27;20221;-70
2022/11/26 06:33:15;;;;;;;17.90;7.85;;;6.70;83.70;;;;;;5127842;27;20682;-70
2022/11/26 06:35:43;;;;;;;16.90;8.60;;;6.60;83.70;;;;;;5124802;27;20217;-70
2022/11/26 06:38:12;;;;;;;13.07;7.35;;;6.60;83.90;;;;;;5126924;27;20313;-70
2022/11/26 06:40:40;;;;;;;18.45;9.38;;;6.60;84.10;;;;;;5126334;27;20294;-70
2022/11/26 06:43:09;;;;;;;13.00;6.88;;;6.60;84.10;;;;;;5125708;27;20259;-70
2022/11/26 06:45:37;;;;;;;17.80;7.03;;;6.60;83.90;;;;;;5123742;27;20557;-70
2022/11/26 06:48:05;;;;;;;11.38;6.07;;;6.50;83.70;;;;;;5124718;27;20255;-69
2022/11/26 06:50:33;;;;;;;10.35;6.28;;;6.50;83.60;;;;;;5124071;27;20753;-71
2022/11/26 06:53:01;;;;;;;11.10;6.93;;;6.40;83.50;;;;;;5125844;27;20227;-72
2022/11/26 06:55:29;;;;;;;14.00;6.70;;;6.40;83.50;;;;;;5126855;27;20217;-70
2022/11/26 06:57:57;;;;;;;12.50;6.43;;;6.30;83.50;;;;;;5125585;27;20278;-70
2022/11/26 07:00:27;;;;;;;15.25;10.55;;;6.20;83.40;;;;;;5123757;27;20225;-71
2022/11/26 07:02:54;;;;;;;43.72;24.38;;;6.20;83.50;;;;;;5125474;27;20209;-70
2022/11/26 07:05:22;;;;;;;56.20;20.70;;;6.20;83.30;;;;;;5125065;27;20204;-70
2022/11/26 07:07:50;;;;;;;31.88;14.15;;;6.20;83.30;;;;;;5122491;27;20250;-70
2022/11/26 07:10:19;;;;;;;28.60;8.43;;;6.10;83.30;;;;;;5127119;27;20270;-70
2022/11/26 07:12:47;;;;;;;44.47;16.00;;;6.10;83.40;;;;;;5125414;27;20217;-70
2022/11/26 07:15:15;;;;;;;98.57;15.05;;;6.10;83.30;;;;;;5125645;27;20690;-70
2022/11/26 07:17:44;;;;;;;40.60;11.70;;;6.00;83.00;;;;;;5125741;27;20205;-69
2022/11/26 07:20:13;;;;;;;25.58;13.32;;;5.90;83.20;;;;;;5122320;27;20205;-70
2022/11/26 07:22:41;;;;;;;53.92;8.63;;;5.80;83.30;;;;;;5124599;27;20569;-70
2022/11/26 07:25:11;;;;;;;25.23;11.20;;;5.80;83.40;;;;;;5124618;27;20214;-70
2022/11/26 07:27:40;;;;;;;29.27;10.60;;;5.80;83.40;;;;;;5123663;27;20209;-70
2022/11/26 07:30:09;;;;;;;36.15;15.23;;;5.80;83.30;;;;;;5130917;27;20206;-70
2022/11/26 07:32:38;;;;;;;29.65;17.10;;;5.80;83.30;;;;;;5123857;27;20205;-70
2022/11/26 07:35:07;;;;;;;57.60;25.67;;;5.80;83.40;;;;;;5122299;27;20206;-70
2022/11/26 07:37:36;;;;;;;117.90;46.67;;;5.80;83.50;;;;;;5122307;27;20202;-70
2022/11/26 07:40:05;;;;;;;53.85;29.23;;;5.80;83.50;;;;;;5125792;27;20202;-69
2022/11/26 07:42:33;;;;;;;101.35;43.08;;;5.80;83.60;;;;;;5121244;27;20231;-70
2022/11/26 07:45:03;;;;;;;57.58;34.80;;;5.80;83.60;;;;;;5123566;27;20210;-70
2022/11/26 07:47:31;;;;;;;35.28;19.05;;;5.90;83.60;;;;;;5121497;27;20210;-70
2022/11/26 07:49:59;;;;;;;31.63;17.58;;;5.90;83.60;;;;;;5126246;27;20202;-70
2022/11/26 07:52:29;;;;;;;25.98;12.82;;;5.90;83.50;;;;;;5123070;27;20214;-70
2022/11/26 07:54:56;;;;;;;24.10;12.30;;;6.00;83.50;;;;;;5123794;27;20234;-71
2022/11/26 07:57:25;;;;;;;17.80;10.90;;;6.00;83.40;;;;;;5124111;27;20226;-71
2022/11/26 07:59:52;;;;;;;23.30;14.10;;;6.00;83.40;;;;;;5123954;27;20198;-71
2022/11/26 08:02:20;;;;;;;18.40;11.27;;;6.00;83.30;;;;;;5126759;27;20702;-70
2022/11/26 08:04:48;;;;;;;15.10;10.23;;;6.00;83.20;;;;;;5124275;27;20280;-71
2022/11/26 08:07:17;;;;;;;12.45;9.65;;;6.00;83.30;;;;;;5124431;27;20202;-70
2022/11/26 08:09:55;;;;;;;13.88;9.45;;;6.00;83.30;;;;;;5125124;27;20204;-71
2022/11/26 08:12:23;;;;;;;15.77;10.38;;;6.00;83.20;;;;;;5124859;27;20227;-70
2022/11/26 08:14:51;;;;;;;13.93;10.02;;;6.00;83.20;;;;;;5124760;27;20217;-71
2022/11/26 08:17:19;;;;;;;14.13;9.75;;;6.00;83.20;;;;;;5126655;27;20222;-70
2022/11/26 08:19:47;;;;;;;13.45;9.48;;;6.00;83.20;;;;;;5124095;27;20908;-70
2022/11/26 08:22:15;;;;;;;13.75;9.73;;;6.00;83.10;;;;;;5125987;27;20221;-71
2022/11/26 08:24:43;;;;;;;13.05;9.00;;;6.00;83.10;;;;;;5124488;27;20213;-70
2022/11/26 08:27:12;;;;;;;13.50;9.07;;;6.00;83.10;;;;;;5124948;27;20806;-70
2022/11/26 08:29:40;;;;;;;13.23;7.97;;;6.00;83.10;;;;;;5121386;27;20282;-70
2022/11/26 08:32:08;;;;;;;12.82;8.07;;;6.10;83.10;;;;;;5123536;27;20651;-71
2022/11/26 08:34:36;;;;;;;9.85;7.05;;;6.10;83.20;;;;;;5122666;27;20758;-70
2022/11/26 08:37:05;;;;;;;10.05;7.05;;;6.10;83.20;;;;;;5126152;27;20312;-71
2022/11/26 08:39:33;;;;;;;8.85;5.85;;;6.20;83.20;;;;;;5127649;27;20247;-70
2022/11/26 08:42:01;;;;;;;10.57;5.30;;;6.20;83.20;;;;;;5121744;27;20240;-70
2022/11/26 08:44:30;;;;;;;7.80;5.00;;;6.20;83.30;;;;;;5119767;27;20230;-70
2022/11/26 08:46:58;;;;;;;9.70;5.63;;;6.20;83.30;;;;;;5122848;27;20230;-68
2022/11/26 08:49:26;;;;;;;12.63;5.25;;;6.30;83.30;;;;;;5125014;27;20206;-71
2022/11/26 08:51:55;;;;;;;12.40;5.47;;;6.30;83.40;;;;;;5122168;27;20222;-69
2022/11/26 08:54:24;;;;;;;11.57;5.40;;;6.40;83.40;;;;;;5124155;27;20251;-69
2022/11/26 08:56:52;;;;;;;43.17;21.50;;;6.40;83.40;;;;;;5122996;27;20229;-71
2022/11/26 08:59:22;;;;;;;37.85;19.83;;;6.50;83.50;;;;;;5121277;27;20202;-70
2022/11/26 09:01:52;;;;;;;37.25;18.90;;;6.50;83.50;;;;;;5118818;27;20337;-70
2022/11/26 09:04:20;;;;;;;31.05;18.10;;;6.60;83.50;;;;;;5123981;27;20778;-70
2022/11/26 09:06:48;;;;;;;32.42;20.42;;;6.60;83.50;;;;;;5123568;28;20202;-70
2022/11/26 09:09:16;;;;;;;49.63;31.45;;;6.60;83.50;;;;;;5123734;27;20956;-70
2022/11/26 09:11:48;;;;;;;49.22;28.48;;;6.70;83.50;;;;;;5124602;27;20278;-69
2022/11/26 09:14:19;;;;;;;47.53;28.75;;;6.80;83.60;;;;;;5122684;28;20205;-70
2022/11/26 09:16:47;;;;;;;45.17;29.00;;;6.80;83.60;;;;;;5122554;28;20214;-70
2022/11/26 09:19:17;;;;;;;54.92;33.63;;;6.90;83.70;;;;;;5121506;27;20262;-71
2022/11/26 09:21:46;;;;;;;64.93;40.40;;;6.90;83.70;;;;;;5122825;27;20277;-71
2022/11/26 09:24:15;;;;;;;57.47;32.97;;;6.90;83.70;;;;;;5122529;28;20212;-71
2022/11/26 09:26:44;;;;;;;51.65;30.48;;;7.00;83.70;;;;;;5123258;27;20763;-69
2022/11/26 09:29:13;;;;;;;40.22;26.40;;;7.00;83.80;;;;;;5123424;27;20254;-70
2022/11/26 09:31:41;;;;;;;36.83;25.10;;;7.00;83.90;;;;;;5122087;27;20218;-69
2022/11/26 09:34:29;;;;;;;34.60;22.75;;;7.10;84.10;;;;;;5123389;27;20717;-69
2022/11/26 09:36:57;;;;;;;37.13;22.75;;;7.20;84.30;;;;;;5121186;28;20226;-70
2022/11/26 09:39:25;;;;;;;29.00;18.60;;;7.20;84.30;;;;;;5123100;28;20260;-70
2022/11/26 09:42:00;;;;;;;24.25;13.32;;;7.30;84.20;;;;;;5124395;28;20298;-69
2022/11/26 09:44:53;;;;;;;23.50;10.98;;;7.40;84.30;;;;;;5123196;27;20853;-69
2022/11/26 09:47:22;;;;;;;20.33;9.20;;;7.40;84.40;;;;;;5122053;27;20555;-70
2022/11/26 09:49:59;;;;;;;18.17;8.95;;;7.50;84.40;;;;;;5122612;28;20785;-71
2022/11/26 09:52:33;;;;;;;19.23;8.85;;;7.50;84.50;;;;;;5125115;28;20262;-71
2022/11/26 09:55:09;;;;;;;21.45;8.80;;;7.60;84.50;;;;;;5123155;28;20218;-71
2022/11/26 09:57:42;;;;;;;16.17;7.35;;;7.60;84.60;;;;;;5122846;28;20230;-71
2022/11/26 10:00:22;;;;;;;19.23;8.45;;;7.60;84.60;;;;;;5125042;27;20213;-70
2022/11/26 10:02:52;;;;;;;18.75;10.25;;;7.70;84.70;;;;;;5121500;27;20198;-71
2022/11/26 10:05:28;;;;;;;23.60;9.88;;;7.70;84.80;;;;;;5123706;27;20210;-70
2022/11/26 10:08:07;;;;;;;18.35;9.85;;;7.70;84.80;;;;;;5123903;27;20199;-71
2022/11/26 10:10:45;;;;;;;20.77;9.95;;;7.80;84.90;;;;;;5121962;27;20225;-70
2022/11/26 10:13:20;;;;;;;22.73;9.48;;;7.80;84.90;;;;;;5126593;27;20282;-70
2022/11/26 10:15:58;;;;;;;18.40;9.10;;;7.80;85.00;;;;;;5127508;27;20206;-71
2022/11/26 10:18:37;;;;;;;20.53;10.33;;;7.80;85.00;;;;;;5126851;27;20304;-70
2022/11/26 10:21:26;;;;;;;19.15;9.20;;;7.90;85.20;;;;;;5129278;27;20474;-69
2022/11/26 10:24:22;;;;;;;17.88;8.65;;;8.00;85.40;;;;;;5127573;27;20279;-71
2022/11/26 10:26:51;;;;;;;21.05;9.10;;;8.10;85.50;;;;;;5123289;27;20198;-71
2022/11/26 10:29:23;;;;;;;21.38;9.05;;;8.20;85.40;;;;;;5129218;27;20266;-71
2022/11/26 10:31:56;;;;;;;19.83;7.93;;;8.30;85.40;;;;;;5124225;27;20286;-72
2022/11/26 10:34:30;;;;;;;16.33;7.70;;;8.30;85.40;;;;;;5127202;27;20578;-73
2022/11/26 10:37:07;;;;;;;22.42;9.68;;;8.40;85.50;;;;;;5124320;27;20492;-70
2022/11/26 10:39:35;;;;;;;17.48;9.15;;;8.50;85.50;;;;;;5128186;27;20206;-70
2022/11/26 10:42:06;;;;;;;25.60;8.60;;;8.50;85.50;;;;;;5125204;27;20654;-70
2022/11/26 10:44:38;;;;;;;19.30;8.23;;;8.60;85.40;;;;;;5127368;27;20205;-72
2022/11/26 10:47:22;;;;;;;15.10;7.17;;;8.60;85.40;;;;;;5119364;27;20451;-71
2022/11/26 10:49:51;;;;;;;14.43;7.97;;;8.60;85.30;;;;;;5126964;27;20746;-71
2022/11/26 10:52:24;;;;;;;19.52;8.70;;;8.60;85.20;;;;;;5128485;27;20274;-72
2022/11/26 10:55:17;;;;;;;15.38;8.30;;;8.60;85.10;;;;;;5127507;27;20302;-71
2022/11/26 10:57:50;;;;;;;14.60;8.43;;;8.60;85.10;;;;;;5124734;27;20640;-69
2022/11/26 11:00:33;;;;;;;24.63;8.82;;;8.60;85.20;;;;;;5122925;27;20206;-72
2022/11/26 11:03:03;;;;;;;18.33;8.07;;;8.50;85.20;;;;;;5125010;27;20201;-70
2022/11/26 11:05:33;;;;;;;16.35;7.70;;;8.50;85.20;;;;;;5124259;27;20326;-71
2022/11/26 11:08:02;;;;;;;17.42;9.23;;;8.50;85.20;;;;;;5125070;27;20206;-71
2022/11/26 11:10:30;;;;;;;18.98;9.40;;;8.50;85.20;;;;;;5128247;27;20240;-71
2022/11/26 11:13:08;;;;;;;15.03;9.20;;;8.50;85.30;;;;;;5125569;27;21078;-71
2022/11/26 11:15:39;;;;;;;19.43;10.10;;;8.50;85.40;;;;;;5127500;27;20462;-71
2022/11/26 11:18:15;;;;;;;22.23;10.23;;;8.50;85.40;;;;;;5123514;27;20475;-69
2022/11/26 11:20:50;;;;;;;19.83;9.20;;;8.50;85.40;;;;;;5125690;27;20471;-71
2022/11/26 11:23:22;;;;;;;14.75;8.90;;;8.50;85.40;;;;;;5121009;27;20205;-69
2022/11/26 11:26:19;;;;;;;24.40;9.65;;;8.50;85.40;;;;;;5126500;27;20285;-70
2022/11/26 11:28:49;;;;;;;17.40;9.00;;;8.50;85.50;;;;;;5125642;27;20198;-69
2022/11/26 11:31:19;;;;;;;19.73;8.80;;;8.50;85.50;;;;;;5121085;27;20767;-71
2022/11/26 11:33:49;;;;;;;15.27;9.23;;;8.50;85.50;;;;;;5120640;27;20492;-68
2022/11/26 11:36:28;;;;;;;17.00;8.90;;;8.60;85.40;;;;;;5123627;27;20876;-69
2022/11/26 11:38:59;;;;;;;17.27;9.43;;;8.60;85.50;;;;;;5116157;27;20230;-69
2022/11/26 11:41:33;;;;;;;17.08;9.25;;;8.60;85.50;;;;;;5123594;27;20478;-68
2022/11/26 11:44:06;;;;;;;19.93;9.60;;;8.70;85.50;;;;;;5122598;27;20202;-70
2022/11/26 11:47:15;;;;;;;23.60;9.10;;;8.70;85.50;;;;;;5124026;27;20469;-70
2022/11/26 11:49:53;;;;;;;18.23;10.18;;;8.70;85.50;;;;;;5093224;27;20535;-68
2022/11/26 11:52:34;;;;;;;21.47;9.20;;;8.70;85.50;;;;;;5121050;27;20229;-70
2022/11/26 11:55:13;;;;;;;22.03;9.90;;;8.70;85.50;;;;;;5124400;27;20993;-68
2022/11/26 11:58:01;;;;;;;17.35;9.40;;;8.70;85.40;;;;;;5123689;27;20478;-70
2022/11/26 12:00:41;;;;;;;20.40;9.50;;;8.80;85.50;;;;;;5118964;27;20236;-68
2022/11/26 12:03:51;;;;;;;17.30;9.60;;;8.80;85.50;;;;;;5122263;27;20463;-72
2022/11/26 12:06:28;;;;;;;21.15;10.55;;;8.80;85.40;;;;;;5123797;27;20650;-71
2022/11/26 12:09:07;;;;;;;16.50;9.88;;;8.80;85.40;;;;;;5123736;27;20202;-70
2022/11/26 12:11:50;;;;;;;25.83;9.20;;;8.80;85.50;;;;;;5123156;27;20228;-70
2022/11/26 12:14:23;;;;;;;21.03;10.33;;;8.80;85.50;;;;;;5125115;27;20475;-70
2022/11/26 12:16:55;;;;;;;20.90;9.07;;;8.80;85.60;;;;;;5121717;27;20480;-71
2022/11/26 12:19:34;;;;;;;21.07;10.30;;;8.90;85.70;;;;;;5124841;27;20486;-70
2022/11/26 12:22:07;;;;;;;23.03;11.10;;;8.90;85.70;;;;;;5124158;27;20731;-71
2022/11/26 12:24:40;;;;;;;18.73;10.57;;;9.00;85.70;;;;;;5125432;27;20447;-72
2022/11/26 12:27:22;;;;;;;18.70;9.67;;;9.00;85.80;;;;;;5125116;27;20494;-72
2022/11/26 12:29:55;;;;;;;22.73;9.00;;;9.10;85.90;;;;;;5126834;27;20464;-72
2022/11/26 12:32:28;;;;;;;15.57;7.87;;;9.10;85.80;;;;;;5124680;27;20478;-72
2022/11/26 12:34:59;;;;;;;16.47;8.70;;;9.10;85.80;;;;;;5122673;27;20473;-72
2022/11/26 12:37:31;;;;;;;16.93;8.77;;;9.10;85.70;;;;;;5124101;27;20465;-71
2022/11/26 12:40:04;;;;;;;22.90;9.80;;;9.10;85.70;;;;;;5118891;27;21049;-72
2022/11/26 12:42:40;;;;;;;22.57;8.40;;;9.10;85.70;;;;;;5125611;27;20457;-72
2022/11/26 12:45:18;;;;;;;29.55;8.57;;;9.10;85.70;;;;;;5123739;27;21008;-73
2022/11/26 12:47:51;;;;;;;16.40;8.33;;;9.10;85.80;;;;;;5122657;27;20205;-72
2022/11/26 12:50:27;;;;;;;20.20;8.57;;;9.20;85.90;;;;;;5123473;27;20481;-70
2022/11/26 12:53:04;;;;;;;23.07;8.87;;;9.20;85.90;;;;;;5139620;27;20463;-71
2022/11/26 12:55:40;;;;;;;27.07;9.53;;;9.20;85.90;;;;;;5126551;27;20466;-70
2022/11/26 12:58:16;;;;;;;20.13;8.63;;;9.20;85.80;;;;;;5125291;27;20466;-72
2022/11/26 13:00:44;;;;;;;16.50;8.20;;;9.20;85.80;;;;;;5121319;27;20222;-72
2022/11/26 13:03:17;;;;;;;15.70;9.00;;;9.30;85.80;;;;;;5121833;27;20988;-71
2022/11/26 13:05:55;;;;;;;19.80;8.10;;;9.30;85.80;;;;;;5125105;28;20492;-71
2022/11/26 13:08:39;;;;;;;20.00;8.57;;;9.30;85.90;;;;;;5125310;28;20968;-72